sensor_id;sensor_type;location;lat;lon;timestamp;P1;durP1;ratioP1;P2;durP2;ratioP2
25687;SDS011;17407;51.120;3.702;2022-10-22T00:00:44;8.43;;;3.38;;
25687;SDS011;17407;51.120;3.702;2022-10-22T03:03:27;11.75;;;3.13;;
25687;SDS011;17407;51.120;3.702;2022-10-22T03:05:52;16.13;;;3.92;;
25687;SDS011;17407;51.120;3.702;2022-10-22T03:09:00;11.52;;;2.75;;
25687;SDS011;17407;51.120;3.702;2022-10-22T04:57:48;12.50;;;2.67;;
25687;SDS011;17407;51.120;3.702;2022-10-22T05:00:57;10.48;;;2.50;;
25687;SDS011;17407;51.120;3.702;2022-10-22T05:03:44;19.17;;;3.05;;
25687;SDS011;17407;51.120;3.702;2022-10-22T05:06:11;15.77;;;3.28;;
25687;SDS011;17407;51.120;3.702;2022-10-22T05:08:58;8.38;;;2.63;;
25687;SDS011;17407;51.120;3.702;2022-10-22T05:11:49;13.88;;;3.28;;
25687;SDS011;17407;51.120;3.702;2022-10-22T05:14:36;13.13;;;3.08;;
25687;SDS011;17407;51.120;3.702;2022-10-22T05:17:21;11.32;;;3.17;;
25687;SDS011;17407;51.120;3.702;2022-10-22T05:20:07;10.15;;;3.40;;
25687;SDS011;17407;51.120;3.702;2022-10-22T05:22:53;15.93;;;3.38;;
25687;SDS011;17407;51.120;3.702;2022-10-22T05:25:38;6.22;;;2.30;;
25687;SDS011;17407;51.120;3.702;2022-10-22T05:28:24;12.63;;;2.85;;
25687;SDS011;17407;51.120;3.702;2022-10-22T05:31:10;7.15;;;2.20;;
25687;SDS011;17407;51.120;3.702;2022-10-22T06:03:30;9.73;;;2.92;;
25687;SDS011;17407;51.120;3.702;2022-10-22T06:06:00;12.82;;;3.25;;
25687;SDS011;17407;51.120;3.702;2022-10-22T06:08:27;16.00;;;2.95;;
25687;SDS011;17407;51.120;3.702;2022-10-22T06:10:53;8.90;;;2.92;;
25687;SDS011;17407;51.120;3.702;2022-10-22T06:13:19;11.70;;;2.50;;
25687;SDS011;17407;51.120;3.702;2022-10-22T06:15:46;9.60;;;3.20;;
25687;SDS011;17407;51.120;3.702;2022-10-22T06:18:13;11.85;;;3.30;;
25687;SDS011;17407;51.120;3.702;2022-10-22T06:20:38;10.13;;;2.72;;
25687;SDS011;17407;51.120;3.702;2022-10-22T06:23:04;14.70;;;2.80;;
25687;SDS011;17407;51.120;3.702;2022-10-22T06:25:30;9.63;;;2.55;;
25687;SDS011;17407;51.120;3.702;2022-10-22T06:27:57;10.57;;;2.95;;
25687;SDS011;17407;51.120;3.702;2022-10-22T06:30:22;13.63;;;3.13;;
25687;SDS011;17407;51.120;3.702;2022-10-22T06:32:48;16.15;;;2.97;;
25687;SDS011;17407;51.120;3.702;2022-10-22T06:35:13;14.82;;;3.05;;
25687;SDS011;17407;51.120;3.702;2022-10-22T06:37:39;9.77;;;3.28;;
25687;SDS011;17407;51.120;3.702;2022-10-22T06:40:05;9.65;;;3.13;;
25687;SDS011;17407;51.120;3.702;2022-10-22T06:42:31;14.93;;;3.13;;
25687;SDS011;17407;51.120;3.702;2022-10-22T06:44:56;10.57;;;2.67;;
25687;SDS011;17407;51.120;3.702;2022-10-22T06:47:42;8.82;;;2.00;;
25687;SDS011;17407;51.120;3.702;2022-10-22T06:50:27;8.50;;;2.13;;
25687;SDS011;17407;51.120;3.702;2022-10-22T06:53:13;10.68;;;2.95;;
25687;SDS011;17407;51.120;3.702;2022-10-22T06:56:03;12.57;;;2.83;;
25687;SDS011;17407;51.120;3.702;2022-10-22T06:58:50;13.90;;;3.00;;
25687;SDS011;17407;51.120;3.702;2022-10-22T07:01:37;10.95;;;2.42;;
25687;SDS011;17407;51.120;3.702;2022-10-22T07:04:03;6.32;;;2.35;;
25687;SDS011;17407;51.120;3.702;2022-10-22T07:06:29;13.73;;;3.13;;
25687;SDS011;17407;51.120;3.702;2022-10-22T07:08:56;10.57;;;2.58;;
25687;SDS011;17407;51.120;3.702;2022-10-22T07:11:27;10.32;;;2.58;;
25687;SDS011;17407;51.120;3.702;2022-10-22T07:14:02;9.82;;;2.72;;
25687;SDS011;17407;51.120;3.702;2022-10-22T07:16:28;9.15;;;2.90;;
25687;SDS011;17407;51.120;3.702;2022-10-22T07:18:53;11.43;;;2.85;;
25687;SDS011;17407;51.120;3.702;2022-10-22T07:21:19;7.90;;;2.70;;
25687;SDS011;17407;51.120;3.702;2022-10-22T07:23:46;21.48;;;3.67;;
25687;SDS011;17407;51.120;3.702;2022-10-22T07:26:13;11.57;;;3.03;;
25687;SDS011;17407;51.120;3.702;2022-10-22T07:28:39;10.43;;;2.67;;
25687;SDS011;17407;51.120;3.702;2022-10-22T07:31:06;13.45;;;3.60;;
25687;SDS011;17407;51.120;3.702;2022-10-22T07:33:33;13.05;;;3.30;;
25687;SDS011;17407;51.120;3.702;2022-10-22T07:36:01;8.07;;;2.10;;
25687;SDS011;17407;51.120;3.702;2022-10-22T07:38:28;9.20;;;2.40;;
25687;SDS011;17407;51.120;3.702;2022-10-22T07:40:53;11.20;;;3.25;;
25687;SDS011;17407;51.120;3.702;2022-10-22T07:43:19;7.80;;;2.15;;
25687;SDS011;17407;51.120;3.702;2022-10-22T07:45:45;17.85;;;3.20;;
25687;SDS011;17407;51.120;3.702;2022-10-22T07:48:31;15.52;;;3.33;;
25687;SDS011;17407;51.120;3.702;2022-10-22T07:51:16;11.90;;;3.03;;
25687;SDS011;17407;51.120;3.702;2022-10-22T07:54:02;18.30;;;4.15;;
25687;SDS011;17407;51.120;3.702;2022-10-22T07:56:48;16.42;;;3.47;;
25687;SDS011;17407;51.120;3.702;2022-10-22T07:59:33;12.77;;;2.85;;
25687;SDS011;17407;51.120;3.702;2022-10-22T09:50:42;4.82;;;2.42;;
25687;SDS011;17407;51.120;3.702;2022-10-22T09:53:56;10.98;;;3.28;;
25687;SDS011;17407;51.120;3.702;2022-10-22T10:00:19;8.27;;;3.20;;
25687;SDS011;17407;51.120;3.702;2022-10-22T10:03:30;12.90;;;3.33;;
25687;SDS011;17407;51.120;3.702;2022-10-22T10:05:59;9.68;;;2.97;;
25687;SDS011;17407;51.120;3.702;2022-10-22T10:46:09;8.88;;;3.05;;
25687;SDS011;17407;51.120;3.702;2022-10-22T11:16:41;10.05;;;2.50;;
25687;SDS011;17407;51.120;3.702;2022-10-22T11:19:55;12.85;;;3.22;;
25687;SDS011;17407;51.120;3.702;2022-10-22T11:26:04;8.68;;;3.08;;
25687;SDS011;17407;51.120;3.702;2022-10-22T11:29:22;8.48;;;2.63;;
25687;SDS011;17407;51.120;3.702;2022-10-22T11:32:32;10.38;;;2.55;;
25687;SDS011;17407;51.120;3.702;2022-10-22T11:35:43;11.48;;;2.67;;
25687;SDS011;17407;51.120;3.702;2022-10-22T11:38:53;8.55;;;2.97;;
25687;SDS011;17407;51.120;3.702;2022-10-22T11:42:05;10.05;;;2.90;;
25687;SDS011;17407;51.120;3.702;2022-10-22T11:48:25;14.00;;;3.15;;
25687;SDS011;17407;51.120;3.702;2022-10-22T11:51:36;11.23;;;2.63;;
25687;SDS011;17407;51.120;3.702;2022-10-22T11:54:46;9.30;;;3.00;;
25687;SDS011;17407;51.120;3.702;2022-10-22T11:57:56;9.73;;;3.38;;
25687;SDS011;17407;51.120;3.702;2022-10-22T12:04:17;9.93;;;2.45;;
25687;SDS011;17407;51.120;3.702;2022-10-22T12:07:31;8.30;;;2.90;;
25687;SDS011;17407;51.120;3.702;2022-10-22T12:10:54;15.07;;;3.47;;
25687;SDS011;17407;51.120;3.702;2022-10-22T12:17:23;12.55;;;3.75;;
25687;SDS011;17407;51.120;3.702;2022-10-22T12:20:32;8.25;;;2.47;;
25687;SDS011;17407;51.120;3.702;2022-10-22T12:23:43;9.95;;;3.05;;
25687;SDS011;17407;51.120;3.702;2022-10-22T12:26:54;10.23;;;2.50;;
25687;SDS011;17407;51.120;3.702;2022-10-22T12:33:26;9.63;;;2.70;;
25687;SDS011;17407;51.120;3.702;2022-10-22T12:36:38;11.15;;;2.95;;
25687;SDS011;17407;51.120;3.702;2022-10-22T12:39:48;9.95;;;2.75;;
25687;SDS011;17407;51.120;3.702;2022-10-22T12:42:57;9.18;;;2.55;;
25687;SDS011;17407;51.120;3.702;2022-10-22T12:46:10;9.55;;;2.58;;
25687;SDS011;17407;51.120;3.702;2022-10-22T12:49:21;7.45;;;2.28;;
25687;SDS011;17407;51.120;3.702;2022-10-22T12:52:32;7.38;;;2.38;;
25687;SDS011;17407;51.120;3.702;2022-10-22T12:55:43;11.82;;;2.83;;
25687;SDS011;17407;51.120;3.702;2022-10-22T12:58:55;8.65;;;2.08;;
25687;SDS011;17407;51.120;3.702;2022-10-22T13:02:23;7.75;;;2.58;;
25687;SDS011;17407;51.120;3.702;2022-10-22T13:05:47;8.73;;;2.42;;
25687;SDS011;17407;51.120;3.702;2022-10-22T13:12:06;9.07;;;2.30;;
25687;SDS011;17407;51.120;3.702;2022-10-22T13:55:29;6.22;;;2.08;;
25687;SDS011;17407;51.120;3.702;2022-10-22T13:58:38;3.40;;;1.92;;
25687;SDS011;17407;51.120;3.702;2022-10-22T14:01:48;5.85;;;1.88;;
25687;SDS011;17407;51.120;3.702;2022-10-22T14:05:12;6.47;;;2.00;;
25687;SDS011;17407;51.120;3.702;2022-10-22T14:08:22;8.57;;;2.25;;
25687;SDS011;17407;51.120;3.702;2022-10-22T14:11:33;6.53;;;2.33;;
25687;SDS011;17407;51.120;3.702;2022-10-22T14:14:42;8.10;;;2.20;;
25687;SDS011;17407;51.120;3.702;2022-10-22T14:17:53;4.60;;;2.10;;
25687;SDS011;17407;51.120;3.702;2022-10-22T14:21:04;8.80;;;2.45;;
25687;SDS011;17407;51.120;3.702;2022-10-22T14:24:13;6.40;;;2.35;;
25687;SDS011;17407;51.120;3.702;2022-10-22T14:27:23;7.43;;;2.15;;
25687;SDS011;17407;51.120;3.702;2022-10-22T14:30:32;8.95;;;2.50;;
25687;SDS011;17407;51.120;3.702;2022-10-22T14:33:42;8.82;;;2.45;;
25687;SDS011;17407;51.120;3.702;2022-10-22T14:36:52;6.70;;;2.47;;
25687;SDS011;17407;51.120;3.702;2022-10-22T14:40:02;6.60;;;2.22;;
25687;SDS011;17407;51.120;3.702;2022-10-22T14:43:13;8.23;;;2.40;;
25687;SDS011;17407;51.120;3.702;2022-10-22T14:49:53;6.78;;;2.38;;
25687;SDS011;17407;51.120;3.702;2022-10-22T14:53:03;6.28;;;3.08;;
25687;SDS011;17407;51.120;3.702;2022-10-22T14:56:13;7.80;;;2.80;;
25687;SDS011;17407;51.120;3.702;2022-10-22T14:59:22;6.93;;;2.17;;
25687;SDS011;17407;51.120;3.702;2022-10-22T15:02:33;6.68;;;2.42;;
25687;SDS011;17407;51.120;3.702;2022-10-22T15:05:57;6.95;;;2.35;;
25687;SDS011;17407;51.120;3.702;2022-10-22T15:09:05;4.82;;;2.22;;
25687;SDS011;17407;51.120;3.702;2022-10-22T15:12:14;5.20;;;1.88;;
25687;SDS011;17407;51.120;3.702;2022-10-22T15:15:24;8.55;;;2.50;;
25687;SDS011;17407;51.120;3.702;2022-10-22T15:18:34;9.05;;;2.80;;
25687;SDS011;17407;51.120;3.702;2022-10-22T15:21:43;7.55;;;2.85;;
25687;SDS011;17407;51.120;3.702;2022-10-22T15:24:52;7.05;;;2.60;;
25687;SDS011;17407;51.120;3.702;2022-10-22T15:28:01;7.13;;;2.35;;
25687;SDS011;17407;51.120;3.702;2022-10-22T15:31:11;7.68;;;2.67;;
25687;SDS011;17407;51.120;3.702;2022-10-22T15:34:26;8.55;;;2.17;;
25687;SDS011;17407;51.120;3.702;2022-10-22T15:37:35;5.32;;;1.75;;
25687;SDS011;17407;51.120;3.702;2022-10-22T15:40:45;8.70;;;2.20;;
25687;SDS011;17407;51.120;3.702;2022-10-22T15:43:54;9.63;;;2.47;;
25687;SDS011;17407;51.120;3.702;2022-10-22T15:47:04;7.18;;;2.08;;
25687;SDS011;17407;51.120;3.702;2022-10-22T15:50:12;9.50;;;2.67;;
25687;SDS011;17407;51.120;3.702;2022-10-22T15:53:22;6.15;;;2.55;;
25687;SDS011;17407;51.120;3.702;2022-10-22T15:56:30;10.73;;;2.60;;
25687;SDS011;17407;51.120;3.702;2022-10-22T15:59:40;10.30;;;2.33;;
25687;SDS011;17407;51.120;3.702;2022-10-22T16:02:49;7.60;;;2.25;;
25687;SDS011;17407;51.120;3.702;2022-10-22T16:06:14;11.57;;;2.80;;
25687;SDS011;17407;51.120;3.702;2022-10-22T16:09:24;11.65;;;2.70;;
25687;SDS011;17407;51.120;3.702;2022-10-22T16:12:33;6.82;;;2.25;;
25687;SDS011;17407;51.120;3.702;2022-10-22T16:15:42;6.88;;;2.08;;
25687;SDS011;17407;51.120;3.702;2022-10-22T16:18:52;7.20;;;2.13;;
25687;SDS011;17407;51.120;3.702;2022-10-22T16:22:01;7.20;;;2.35;;
25687;SDS011;17407;51.120;3.702;2022-10-22T16:25:11;7.82;;;3.38;;
25687;SDS011;17407;51.120;3.702;2022-10-22T16:28:19;11.00;;;4.03;;
25687;SDS011;17407;51.120;3.702;2022-10-22T16:31:29;13.90;;;6.97;;
25687;SDS011;17407;51.120;3.702;2022-10-22T16:34:39;15.80;;;8.13;;
25687;SDS011;17407;51.120;3.702;2022-10-22T16:37:48;12.98;;;5.07;;
25687;SDS011;17407;51.120;3.702;2022-10-22T16:44:16;13.13;;;3.60;;
25687;SDS011;17407;51.120;3.702;2022-10-22T16:47:26;13.48;;;3.78;;
25687;SDS011;17407;51.120;3.702;2022-10-22T16:50:37;7.72;;;2.60;;
25687;SDS011;17407;51.120;3.702;2022-10-22T16:53:47;8.23;;;2.92;;
25687;SDS011;17407;51.120;3.702;2022-10-22T16:56:56;12.23;;;3.17;;
25687;SDS011;17407;51.120;3.702;2022-10-22T17:00:06;6.50;;;2.88;;
25687;SDS011;17407;51.120;3.702;2022-10-22T17:03:16;10.23;;;3.33;;
25687;SDS011;17407;51.120;3.702;2022-10-22T17:06:25;9.45;;;3.58;;
25687;SDS011;17407;51.120;3.702;2022-10-22T17:09:35;7.35;;;4.00;;
25687;SDS011;17407;51.120;3.702;2022-10-22T17:12:45;8.88;;;4.15;;
25687;SDS011;17407;51.120;3.702;2022-10-22T17:15:59;9.88;;;4.57;;
25687;SDS011;17407;51.120;3.702;2022-10-22T17:19:11;12.60;;;4.82;;
25687;SDS011;17407;51.120;3.702;2022-10-22T17:22:21;8.40;;;4.88;;
25687;SDS011;17407;51.120;3.702;2022-10-22T17:28:46;13.70;;;4.97;;
25687;SDS011;17407;51.120;3.702;2022-10-22T17:31:56;13.93;;;5.88;;
25687;SDS011;17407;51.120;3.702;2022-10-22T17:35:06;13.80;;;6.30;;
25687;SDS011;17407;51.120;3.702;2022-10-22T17:38:18;12.57;;;6.07;;
25687;SDS011;17407;51.120;3.702;2022-10-22T17:41:30;10.55;;;6.07;;
25687;SDS011;17407;51.120;3.702;2022-10-22T17:44:39;11.80;;;5.72;;
25687;SDS011;17407;51.120;3.702;2022-10-22T17:47:49;13.07;;;5.90;;
25687;SDS011;17407;51.120;3.702;2022-10-22T17:50:59;18.10;;;5.57;;
25687;SDS011;17407;51.120;3.702;2022-10-22T17:54:09;15.48;;;6.22;;
25687;SDS011;17407;51.120;3.702;2022-10-22T17:57:45;10.20;;;5.53;;
25687;SDS011;17407;51.120;3.702;2022-10-22T18:00:54;9.98;;;5.43;;
25687;SDS011;17407;51.120;3.702;2022-10-22T18:03:41;12.20;;;5.80;;
25687;SDS011;17407;51.120;3.702;2022-10-22T18:06:06;13.00;;;5.70;;
25687;SDS011;17407;51.120;3.702;2022-10-22T18:08:34;11.07;;;5.28;;
25687;SDS011;17407;51.120;3.702;2022-10-22T18:11:03;15.35;;;7.50;;
25687;SDS011;17407;51.120;3.702;2022-10-22T18:13:31;14.73;;;7.18;;
25687;SDS011;17407;51.120;3.702;2022-10-22T18:15:57;12.35;;;6.50;;
25687;SDS011;17407;51.120;3.702;2022-10-22T18:18:22;14.40;;;7.60;;
25687;SDS011;17407;51.120;3.702;2022-10-22T18:20:49;16.00;;;7.82;;
25687;SDS011;17407;51.120;3.702;2022-10-22T18:23:15;13.63;;;7.88;;
25687;SDS011;17407;51.120;3.702;2022-10-22T18:25:41;17.05;;;7.88;;
25687;SDS011;17407;51.120;3.702;2022-10-22T18:28:07;14.88;;;7.43;;
25687;SDS011;17407;51.120;3.702;2022-10-22T18:30:36;23.77;;;7.30;;
25687;SDS011;17407;51.120;3.702;2022-10-22T18:33:04;15.30;;;7.10;;
25687;SDS011;17407;51.120;3.702;2022-10-22T18:35:31;13.55;;;6.38;;
25687;SDS011;17407;51.120;3.702;2022-10-22T18:37:57;17.15;;;7.57;;
25687;SDS011;17407;51.120;3.702;2022-10-22T18:40:22;15.50;;;6.28;;
25687;SDS011;17407;51.120;3.702;2022-10-22T18:42:48;15.38;;;6.10;;
25687;SDS011;17407;51.120;3.702;2022-10-22T18:45:13;15.40;;;6.05;;
25687;SDS011;17407;51.120;3.702;2022-10-22T20:44:12;17.92;;;9.77;;
25687;SDS011;17407;51.120;3.702;2022-10-22T20:47:22;17.40;;;8.30;;
25687;SDS011;17407;51.120;3.702;2022-10-22T20:50:32;15.10;;;6.93;;
25687;SDS011;17407;51.120;3.702;2022-10-22T20:53:42;16.00;;;7.45;;
25687;SDS011;17407;51.120;3.702;2022-10-22T20:56:50;10.88;;;6.43;;
25687;SDS011;17407;51.120;3.702;2022-10-22T21:00:00;17.05;;;6.25;;
25687;SDS011;17407;51.120;3.702;2022-10-22T21:03:09;14.68;;;6.05;;
25687;SDS011;17407;51.120;3.702;2022-10-22T21:05:35;15.07;;;6.28;;
25687;SDS011;17407;51.120;3.702;2022-10-22T22:31:53;16.10;;;7.68;;
25687;SDS011;17407;51.120;3.702;2022-10-22T22:35:03;11.35;;;6.95;;
25687;SDS011;17407;51.120;3.702;2022-10-22T22:38:13;14.70;;;6.85;;
25687;SDS011;17407;51.120;3.702;2022-10-22T22:41:23;15.77;;;7.53;;
25687;SDS011;17407;51.120;3.702;2022-10-22T22:44:32;16.13;;;7.97;;
25687;SDS011;17407;51.120;3.702;2022-10-22T22:47:41;18.33;;;7.40;;
25687;SDS011;17407;51.120;3.702;2022-10-22T22:54:20;14.30;;;7.13;;
25687;SDS011;17407;51.120;3.702;2022-10-22T22:57:30;20.05;;;8.30;;
25687;SDS011;17407;51.120;3.702;2022-10-22T23:00:39;14.38;;;7.22;;
25687;SDS011;17407;51.120;3.702;2022-10-22T23:03:40;16.35;;;7.60;;
25687;SDS011;17407;51.120;3.702;2022-10-22T23:06:06;16.13;;;7.82;;
25687;SDS011;17407;51.120;3.702;2022-10-22T23:08:32;17.77;;;7.07;;
25687;SDS011;17407;51.120;3.702;2022-10-22T23:11:02;15.68;;;6.95;;
25687;SDS011;17407;51.120;3.702;2022-10-22T23:13:33;11.35;;;6.25;;
25687;SDS011;17407;51.120;3.702;2022-10-22T23:16:12;14.27;;;7.05;;
25687;SDS011;17407;51.120;3.702;2022-10-22T23:18:39;18.90;;;7.30;;
25687;SDS011;17407;51.120;3.702;2022-10-22T23:21:08;13.82;;;7.07;;
25687;SDS011;17407;51.120;3.702;2022-10-22T23:23:47;14.75;;;6.97;;
25687;SDS011;17407;51.120;3.702;2022-10-22T23:26:18;16.48;;;7.28;;
25687;SDS011;17407;51.120;3.702;2022-10-22T23:28:46;15.15;;;7.55;;
25687;SDS011;17407;51.120;3.702;2022-10-22T23:31:13;18.88;;;7.45;;
25687;SDS011;17407;51.120;3.702;2022-10-22T23:33:40;18.08;;;7.38;;
